Time;durP1;ratioP1;P1;durP2;ratioP2;P2;SDS_P1;SDS_P2;PMS_P1;PMS_P2;Temp;Humidity;BMP_temperature;BMP_pressure;BME280_temperature;BME280_humidity;BME280_pressure;Samples;Min_cycle;Max_cycle;Signal;HPM_P1;HPM_P2
2023/07/04 00:01:10;;;;;;;;;8.67;8.67;;;;;;;;5083378;27;46221;-75
2023/07/04 00:03:38;;;;;;;;;7.33;7.33;;;;;;;;5083630;27;45315;-75
2023/07/04 00:06:05;;;;;;;;;9.00;9.00;;;;;;;;5083778;27;45476;-75
2023/07/04 00:08:33;;;;;;;;;9.00;9.00;;;;;;;;5083471;27;45354;-75
2023/07/04 00:10:59;;;;;;;;;9.67;8.67;;;;;;;;5083294;27;47550;-75
2023/07/04 00:13:25;;;;;;;;;9.67;8.33;;;;;;;;5083365;27;45303;-75
2023/07/04 00:15:51;;;;;;;;;9.00;8.33;;;;;;;;5079816;28;45251;-75
2023/07/04 00:18:21;;;;;;;;;9.67;8.67;;;;;;;;5062805;28;45437;-75
2023/07/04 00:20:54;;;;;;;;;9.33;7.67;;;;;;;;5062440;28;46401;-75
2023/07/04 00:23:25;;;;;;;;;10.67;10.67;;;;;;;;5061834;28;45484;-75
2023/07/04 00:25:54;;;;;;;;;7.00;7.00;;;;;;;;5063044;28;45216;-75
2023/07/04 00:28:22;;;;;;;;;12.67;11.00;;;;;;;;5063035;27;46744;-75
2023/07/04 00:30:50;;;;;;;;;9.00;8.00;;;;;;;;5083211;27;46214;-75
2023/07/04 00:33:16;;;;;;;;;10.67;9.00;;;;;;;;5082970;27;45363;-75
2023/07/04 00:35:42;;;;;;;;;9.33;9.33;;;;;;;;5082862;27;45263;-74
2023/07/04 00:38:08;;;;;;;;;8.33;8.00;;;;;;;;5083105;27;45379;-74
2023/07/04 00:40:33;;;;;;;;;8.00;8.00;;;;;;;;5101230;27;47012;-75
2023/07/04 00:43:03;;;;;;;;;8.33;8.33;;;;;;;;5082776;27;45290;-74
2023/07/04 00:45:35;;;;;;;;;9.00;9.00;;;;;;;;5082936;27;45307;-74
2023/07/04 00:48:03;;;;;;;;;6.67;6.67;;;;;;;;5082886;27;45457;-75
2023/07/04 00:50:31;;;;;;;;;11.67;10.33;;;;;;;;5082817;27;46180;-75
2023/07/04 00:52:58;;;;;;;;;8.33;7.33;;;;;;;;5082975;27;45343;-75
2023/07/04 00:55:25;;;;;;;;;10.00;10.00;;;;;;;;5082816;27;45381;-75
2023/07/04 00:57:50;;;;;;;;;11.33;8.00;;;;;;;;5082702;27;45398;-75
2023/07/04 01:00:24;;;;;;;;;8.33;8.00;;;;;;;;5101083;27;45740;-75
2023/07/04 01:02:51;;;;;;;;;10.67;9.67;;;;;;;;5082705;27;45407;-75
2023/07/04 01:05:24;;;;;;;;;9.33;8.33;;;;;;;;5082778;27;45331;-75
2023/07/04 01:08:09;;;;;;;;;11.33;10.67;;;;;;;;5101163;27;45428;-75
2023/07/04 01:10:44;;;;;;;;;8.00;7.33;;;;;;;;5082272;27;45548;-75
2023/07/04 01:13:28;;;;;;;;;9.67;9.67;;;;;;;;5082387;27;45402;-75
2023/07/04 01:15:59;;;;;;;;;9.00;9.00;;;;;;;;5082231;27;45600;-74
2023/07/04 01:18:24;;;;;;;;;12.33;11.67;;;;;;;;5082431;27;47515;-75
2023/07/04 01:20:50;;;;;;;;;8.33;8.33;;;;;;;;5082213;27;46564;-75
2023/07/04 01:23:31;;;;;;;;;8.67;7.67;;;;;;;;5082419;27;45303;-75
2023/07/04 01:26:01;;;;;;;;;10.00;10.00;;;;;;;;5082282;27;45321;-74
2023/07/04 01:28:30;;;;;;;;;9.00;8.00;;;;;;;;5080655;27;45766;-75
2023/07/04 01:30:58;;;;;;;;;11.33;9.00;;;;;;;;5061766;28;45958;-75
2023/07/04 01:33:24;;;;;;;;;11.00;11.00;;;;;;;;5061866;28;45338;-75
2023/07/04 01:35:50;;;;;;;;;10.00;9.00;;;;;;;;5061911;28;45267;-75
2023/07/04 01:38:15;;;;;;;;;11.00;11.00;;;;;;;;5061734;28;45558;-75
2023/07/04 01:40:40;;;;;;;;;12.00;11.33;;;;;;;;5061693;28;45899;-74
2023/07/04 01:43:09;;;;;;;;;10.33;9.33;;;;;;;;5061618;28;45811;-75
2023/07/04 01:45:34;;;;;;;;;13.33;13.00;;;;;;;;5061146;28;45403;-73
2023/07/04 01:47:59;;;;;;;;;10.67;10.67;;;;;;;;5060593;28;45519;-73
2023/07/04 01:50:25;;;;;;;;;11.00;10.33;;;;;;;;5079876;28;45904;-75
2023/07/04 01:52:50;;;;;;;;;10.00;9.00;;;;;;;;5061683;28;45347;-74
2023/07/04 01:55:16;;;;;;;;;10.00;10.00;;;;;;;;5061620;28;45430;-73
2023/07/04 01:57:42;;;;;;;;;11.00;11.00;;;;;;;;5061507;28;45402;-74
2023/07/04 02:00:14;;;;;;;;;10.33;10.33;;;;;;;;5060966;28;45516;-76
2023/07/04 02:02:40;;;;;;;;;11.33;10.00;;;;;;;;5079965;28;45305;-76
2023/07/04 02:05:06;;;;;;;;;11.00;11.00;;;;;;;;5061384;28;45336;-76
2023/07/04 02:07:34;;;;;;;;;13.33;12.00;;;;;;;;5061241;28;45372;-73
2023/07/04 02:10:00;;;;;;;;;9.67;8.00;;;;;;;;5061186;28;46908;-75
2023/07/04 02:12:25;;;;;;;;;12.33;10.00;;;;;;;;5061526;28;45879;-76
2023/07/04 02:14:50;;;;;;;;;9.33;9.33;;;;;;;;5061394;28;45452;-76
2023/07/04 02:17:16;;;;;;;;;10.00;10.00;;;;;;;;5061294;28;45517;-76
2023/07/04 02:19:41;;;;;;;;;9.33;8.67;;;;;;;;5061319;28;45591;-76
2023/07/04 02:22:07;;;;;;;;;11.33;10.00;;;;;;;;5061345;28;45295;-76
2023/07/04 02:24:34;;;;;;;;;10.00;10.00;;;;;;;;5061361;28;45229;-76
2023/07/04 02:27:00;;;;;;;;;11.67;11.00;;;;;;;;5079535;28;45248;-75
2023/07/04 02:29:25;;;;;;;;;11.00;8.00;;;;;;;;5070535;27;45380;-76
2023/07/04 02:31:51;;;;;;;;;8.00;8.00;;;;;;;;5081496;27;45420;-75
2023/07/04 02:34:16;;;;;;;;;8.00;8.00;;;;;;;;5081694;27;45310;-74
2023/07/04 02:36:47;;;;;;;;;11.67;8.67;;;;;;;;5081401;27;45362;-75
2023/07/04 02:39:15;;;;;;;;;10.00;9.00;;;;;;;;5081418;27;45724;-75
2023/07/04 02:41:41;;;;;;;;;11.00;8.67;;;;;;;;5081096;27;45525;-75
2023/07/04 02:44:06;;;;;;;;;9.00;7.33;;;;;;;;5099492;27;45302;-76
2023/07/04 02:46:31;;;;;;;;;7.00;7.00;;;;;;;;5099480;27;45414;-75
2023/07/04 02:48:56;;;;;;;;;7.33;7.33;;;;;;;;5099699;27;46519;-75
2023/07/04 02:51:21;;;;;;;;;8.33;6.33;;;;;;;;5099744;27;45369;-76
2023/07/04 02:53:47;;;;;;;;;11.33;10.00;;;;;;;;5099848;27;45314;-75
2023/07/04 02:56:12;;;;;;;;;8.67;7.33;;;;;;;;5081053;27;46004;-75
2023/07/04 02:58:37;;;;;;;;;9.67;8.00;;;;;;;;5101016;27;45933;-75
2023/07/04 03:01:04;;;;;;;;;8.33;7.00;;;;;;;;5084699;27;45444;-75
2023/07/04 03:03:29;;;;;;;;;8.33;8.33;;;;;;;;5103390;27;45278;-75
2023/07/04 03:05:55;;;;;;;;;10.00;9.67;;;;;;;;5102966;27;45208;-75
2023/07/04 03:08:21;;;;;;;;;8.33;8.00;;;;;;;;5084544;27;47484;-75
2023/07/04 03:10:46;;;;;;;;;7.00;5.00;;;;;;;;5102756;27;45339;-75
2023/07/04 03:13:12;;;;;;;;;6.00;6.00;;;;;;;;5103138;27;45182;-76
2023/07/04 03:15:37;;;;;;;;;8.33;6.67;;;;;;;;5103010;27;45229;-75
2023/07/04 03:18:02;;;;;;;;;9.67;8.00;;;;;;;;5102883;27;45425;-75
2023/07/04 03:20:27;;;;;;;;;6.00;6.00;;;;;;;;5084463;27;45798;-75
2023/07/04 03:22:52;;;;;;;;;8.67;7.00;;;;;;;;5084659;27;45518;-75
2023/07/04 03:25:18;;;;;;;;;8.67;8.33;;;;;;;;5102440;27;45601;-75
2023/07/04 03:27:43;;;;;;;;;5.67;5.67;;;;;;;;5102664;27;45664;-76
2023/07/04 03:30:09;;;;;;;;;7.67;6.67;;;;;;;;5086733;27;45378;-75
2023/07/04 03:32:34;;;;;;;;;7.33;5.67;;;;;;;;5064105;28;45305;-75
2023/07/04 03:35:02;;;;;;;;;6.33;4.33;;;;;;;;5082155;28;45377;-75
2023/07/04 03:37:28;;;;;;;;;7.00;6.33;;;;;;;;5081917;28;46162;-75
2023/07/04 03:39:53;;;;;;;;;5.67;5.00;;;;;;;;5081972;28;45315;-75
2023/07/04 03:42:18;;;;;;;;;6.33;6.33;;;;;;;;5063796;28;45283;-75
2023/07/04 03:44:44;;;;;;;;;7.00;5.33;;;;;;;;5063365;28;45943;-75
2023/07/04 03:47:09;;;;;;;;;8.33;8.00;;;;;;;;5081792;28;45223;-75
2023/07/04 03:49:35;;;;;;;;;6.67;6.00;;;;;;;;5081800;28;45206;-75
2023/07/04 03:52:00;;;;;;;;;6.00;6.00;;;;;;;;5063722;28;45494;-75
2023/07/04 03:54:25;;;;;;;;;9.67;8.00;;;;;;;;5081690;28;45435;-75
2023/07/04 03:56:50;;;;;;;;;8.67;8.67;;;;;;;;5081673;28;45243;-75
2023/07/04 03:59:15;;;;;;;;;12.33;9.00;;;;;;;;5081820;28;45228;-74
2023/07/04 04:01:41;;;;;;;;;5.33;5.00;;;;;;;;5081746;28;45280;-76
2023/07/04 04:04:06;;;;;;;;;7.67;7.67;;;;;;;;5063451;28;46392;-75
2023/07/04 04:06:31;;;;;;;;;8.67;8.67;;;;;;;;5081453;28;46467;-75
2023/07/04 04:08:56;;;;;;;;;10.67;8.00;;;;;;;;5081650;28;45392;-75
2023/07/04 04:11:21;;;;;;;;;9.67;9.67;;;;;;;;5080912;28;45193;-75
2023/07/04 04:13:46;;;;;;;;;9.00;7.00;;;;;;;;5081521;28;45217;-75
2023/07/04 04:16:12;;;;;;;;;7.00;7.00;;;;;;;;5081396;28;45364;-75
2023/07/04 04:18:37;;;;;;;;;8.67;8.33;;;;;;;;5063154;28;45263;-75
2023/07/04 04:21:02;;;;;;;;;7.00;7.00;;;;;;;;5081338;28;45523;-75
2023/07/04 04:23:27;;;;;;;;;8.67;8.67;;;;;;;;5081038;28;45576;-76
2023/07/04 04:25:53;;;;;;;;;8.67;7.00;;;;;;;;5062856;28;47562;-75
2023/07/04 04:28:18;;;;;;;;;8.67;8.33;;;;;;;;5062134;27;45628;-75
2023/07/04 04:30:43;;;;;;;;;10.00;6.00;;;;;;;;5100863;27;45321;-75
2023/07/04 04:33:09;;;;;;;;;7.67;7.67;;;;;;;;5100663;27;45352;-75
2023/07/04 04:35:37;;;;;;;;;9.33;8.33;;;;;;;;5101235;27;45945;-75
2023/07/04 04:38:03;;;;;;;;;8.67;8.67;;;;;;;;5083152;27;45325;-75
2023/07/04 04:40:28;;;;;;;;;8.00;8.00;;;;;;;;5101668;27;45424;-75
2023/07/04 04:42:55;;;;;;;;;6.67;6.67;;;;;;;;5082934;27;47244;-75
2023/07/04 04:45:20;;;;;;;;;7.00;7.00;;;;;;;;5101141;27;46292;-75
2023/07/04 04:47:52;;;;;;;;;10.00;8.33;;;;;;;;5101367;27;45250;-75
2023/07/04 04:50:25;;;;;;;;;8.33;8.00;;;;;;;;5101552;27;45230;-76
2023/07/04 04:52:50;;;;;;;;;11.67;11.67;;;;;;;;5082871;27;47330;-75
2023/07/04 04:55:16;;;;;;;;;10.67;9.00;;;;;;;;5082332;27;46422;-75
2023/07/04 04:57:42;;;;;;;;;10.67;10.67;;;;;;;;5101323;27;45374;-75
2023/07/04 05:00:07;;;;;;;;;10.00;10.00;;;;;;;;5101527;27;45433;-75
2023/07/04 05:02:33;;;;;;;;;11.00;10.33;;;;;;;;5101185;27;45221;-75
2023/07/04 05:05:01;;;;;;;;;10.00;9.00;;;;;;;;5101123;27;45257;-75
2023/07/04 05:07:26;;;;;;;;;13.33;10.67;;;;;;;;5100939;27;45381;-74
2023/07/04 05:09:53;;;;;;;;;11.33;10.00;;;;;;;;5101168;27;45274;-75
2023/07/04 05:12:18;;;;;;;;;9.67;8.67;;;;;;;;5082679;27;46340;-75
2023/07/04 05:14:43;;;;;;;;;13.33;10.33;;;;;;;;5100888;27;45401;-75
2023/07/04 05:17:08;;;;;;;;;12.00;11.00;;;;;;;;5092985;27;45443;-74
2023/07/04 05:19:34;;;;;;;;;10.67;9.33;;;;;;;;5058653;28;45565;-74
2023/07/04 05:21:59;;;;;;;;;11.33;10.33;;;;;;;;5079161;28;45365;-74
2023/07/04 05:24:24;;;;;;;;;14.33;11.00;;;;;;;;5057996;28;47248;-75
2023/07/04 05:26:49;;;;;;;;;11.00;11.00;;;;;;;;5061389;28;45606;-75
2023/07/04 05:29:14;;;;;;;;;12.00;10.33;;;;;;;;5081417;27;45691;-74
2023/07/04 05:31:39;;;;;;;;;16.33;11.00;;;;;;;;5086139;27;45490;-75
2023/07/04 05:34:05;;;;;;;;;10.67;10.67;;;;;;;;5079393;28;46012;-76
2023/07/04 05:36:31;;;;;;;;;14.00;13.00;;;;;;;;5079592;28;45413;-75
2023/07/04 05:39:01;;;;;;;;;12.33;10.00;;;;;;;;5079290;28;45374;-75
2023/07/04 05:41:27;;;;;;;;;10.00;10.00;;;;;;;;5078843;28;45437;-76
2023/07/04 05:43:58;;;;;;;;;9.33;9.33;;;;;;;;5063155;28;45469;-75
2023/07/04 05:46:24;;;;;;;;;9.00;8.00;;;;;;;;5078886;28;45232;-75
2023/07/04 05:48:50;;;;;;;;;13.00;10.00;;;;;;;;5079241;28;45263;-75
2023/07/04 05:51:16;;;;;;;;;8.33;8.33;;;;;;;;5079081;28;45482;-75
2023/07/04 05:53:42;;;;;;;;;9.33;8.33;;;;;;;;5061260;28;47885;-75
2023/07/04 05:56:09;;;;;;;;;7.67;7.67;;;;;;;;5079468;28;45308;-76
2023/07/04 05:58:35;;;;;;;;;10.00;7.33;;;;;;;;5060407;28;45433;-75
2023/07/04 06:01:18;;;;;;;;;11.33;9.67;;;;;;;;5078284;28;45395;-76
2023/07/04 06:03:46;;;;;;;;;10.00;8.33;;;;;;;;5079484;28;45485;-77
2023/07/04 06:06:16;;;;;;;;;11.33;9.67;;;;;;;;5061003;28;45510;-76
2023/07/04 06:08:41;;;;;;;;;11.00;9.67;;;;;;;;5078936;28;45234;-76
2023/07/04 06:11:07;;;;;;;;;12.00;11.33;;;;;;;;5079315;28;45230;-76
2023/07/04 06:13:32;;;;;;;;;9.67;9.00;;;;;;;;5078630;28;45965;-76
2023/07/04 06:15:58;;;;;;;;;10.67;8.67;;;;;;;;5061258;28;45313;-77
2023/07/04 06:18:24;;;;;;;;;10.00;10.00;;;;;;;;5060809;28;45415;-76
2023/07/04 06:20:49;;;;;;;;;12.00;11.00;;;;;;;;5078997;28;45548;-77
2023/07/04 06:23:14;;;;;;;;;9.00;7.33;;;;;;;;5079583;28;45313;-76
2023/07/04 06:25:40;;;;;;;;;9.67;8.67;;;;;;;;5061543;28;45413;-75
2023/07/04 06:28:05;;;;;;;;;10.00;10.00;;;;;;;;5078529;28;45504;-77
2023/07/04 06:30:34;;;;;;;;;12.00;12.00;;;;;;;;5097783;27;45393;-78
2023/07/04 06:32:59;;;;;;;;;12.33;9.33;;;;;;;;5100051;27;45289;-77
2023/07/04 06:35:25;;;;;;;;;9.33;9.33;;;;;;;;5102881;27;45208;-78
2023/07/04 06:37:55;;;;;;;;;11.00;9.00;;;;;;;;5069596;28;45414;-81
2023/07/04 06:40:21;;;;;;;;;9.00;9.00;;;;;;;;5060345;28;46289;-78
2023/07/04 06:42:46;;;;;;;;;10.33;9.00;;;;;;;;5063263;28;47467;-79
2023/07/04 06:45:11;;;;;;;;;10.67;9.33;;;;;;;;5082527;28;45391;-77
2023/07/04 06:47:37;;;;;;;;;8.67;8.67;;;;;;;;5082639;28;45392;-77
2023/07/04 06:50:03;;;;;;;;;10.67;10.33;;;;;;;;5063486;28;46311;-76
2023/07/04 06:52:29;;;;;;;;;9.67;8.67;;;;;;;;5083052;28;46344;-77
2023/07/04 06:54:54;;;;;;;;;7.67;7.67;;;;;;;;5064022;28;45432;-78
2023/07/04 06:57:19;;;;;;;;;10.67;10.67;;;;;;;;5080840;28;45199;-77
2023/07/04 06:59:45;;;;;;;;;10.33;9.67;;;;;;;;5063240;28;47582;-78
2023/07/04 07:02:14;;;;;;;;;9.33;8.67;;;;;;;;5063863;28;47441;-77
2023/07/04 07:04:39;;;;;;;;;9.00;9.00;;;;;;;;5064124;28;45980;-79
2023/07/04 07:07:08;;;;;;;;;10.00;10.00;;;;;;;;5081639;28;45375;-80
2023/07/04 07:09:35;;;;;;;;;9.33;9.00;;;;;;;;5061876;28;45513;-77
2023/07/04 07:12:01;;;;;;;;;8.00;8.00;;;;;;;;5061054;28;46180;-76
2023/07/04 07:14:27;;;;;;;;;7.00;7.00;;;;;;;;5061720;28;45244;-77
2023/07/04 07:16:55;;;;;;;;;9.33;9.00;;;;;;;;5043464;28;45446;-77
2023/07/04 07:19:20;;;;;;;;;8.33;8.33;;;;;;;;5061554;28;45431;-75
2023/07/04 07:21:45;;;;;;;;;7.67;7.67;;;;;;;;5071462;28;46119;-77
2023/07/04 07:24:10;;;;;;;;;8.33;8.33;;;;;;;;5063759;28;45436;-77
2023/07/04 07:26:35;;;;;;;;;7.00;7.00;;;;;;;;5080459;28;45418;-78
2023/07/04 07:29:01;;;;;;;;;9.00;9.00;;;;;;;;5086399;27;45584;-78
2023/07/04 07:31:27;;;;;;;;;8.00;8.00;;;;;;;;5101858;27;46748;-81
2023/07/04 07:33:52;;;;;;;;;9.00;9.00;;;;;;;;5085155;27;45347;-82
2023/07/04 07:36:20;;;;;;;;;8.00;7.67;;;;;;;;5085810;27;45514;-82
2023/07/04 07:38:46;;;;;;;;;8.67;7.67;;;;;;;;5088151;27;47478;-78
2023/07/04 07:41:11;;;;;;;;;10.00;8.00;;;;;;;;5101275;27;46136;-78
2023/07/04 07:43:37;;;;;;;;;8.67;7.00;;;;;;;;5083992;27;45513;-79
2023/07/04 07:46:05;;;;;;;;;8.67;8.00;;;;;;;;5083172;27;45318;-79
2023/07/04 07:48:30;;;;;;;;;10.67;8.67;;;;;;;;5083747;27;47561;-79
2023/07/04 07:50:56;;;;;;;;;8.00;8.00;;;;;;;;5103082;27;46189;-79
2023/07/04 07:53:21;;;;;;;;;10.00;9.00;;;;;;;;5102728;27;45360;-83
2023/07/04 07:55:46;;;;;;;;;10.00;9.00;;;;;;;;5107223;27;45408;-82
2023/07/04 07:58:11;;;;;;;;;9.00;9.00;;;;;;;;5086780;27;45982;-82
2023/07/04 08:00:37;;;;;;;;;9.67;8.67;;;;;;;;5106770;27;46299;-81
2023/07/04 08:03:02;;;;;;;;;6.00;5.33;;;;;;;;5108558;27;45345;-81
2023/07/04 08:05:27;;;;;;;;;10.00;8.67;;;;;;;;5108637;27;45267;-80
2023/07/04 08:07:52;;;;;;;;;8.33;6.33;;;;;;;;5088566;27;47117;-81
2023/07/04 08:10:17;;;;;;;;;10.67;10.00;;;;;;;;5104875;27;46096;-80
2023/07/04 08:12:43;;;;;;;;;8.33;8.33;;;;;;;;5087257;27;45311;-80
2023/07/04 08:15:08;;;;;;;;;8.00;7.33;;;;;;;;5084874;27;45242;-80
2023/07/04 08:17:33;;;;;;;;;9.00;9.00;;;;;;;;5089636;27;45983;-80
2023/07/04 08:19:58;;;;;;;;;11.33;9.33;;;;;;;;5104705;27;45128;-80
2023/07/04 08:22:24;;;;;;;;;11.00;8.00;;;;;;;;5083815;27;45392;-80
2023/07/04 08:24:49;;;;;;;;;8.67;8.00;;;;;;;;5103751;27;45198;-80
2023/07/04 08:27:14;;;;;;;;;6.33;6.33;;;;;;;;5106197;27;45613;-80
2023/07/04 08:29:39;;;;;;;;;7.67;7.67;;;;;;;;5079938;27;47397;-78
2023/07/04 08:32:05;;;;;;;;;6.67;6.67;;;;;;;;5089610;27;45240;-80
2023/07/04 08:34:31;;;;;;;;;9.00;8.33;;;;;;;;5064555;28;45380;-81
2023/07/04 08:36:57;;;;;;;;;9.00;7.67;;;;;;;;5063399;28;45450;-81
2023/07/04 08:39:22;;;;;;;;;8.00;7.67;;;;;;;;5062493;28;45231;-82
2023/07/04 08:41:58;;;;;;;;;10.67;9.00;;;;;;;;5066474;28;45177;-81
2023/07/04 08:44:28;;;;;;;;;12.67;11.33;;;;;;;;5047704;28;45343;-81
2023/07/04 08:46:55;;;;;;;;;8.67;8.33;;;;;;;;5065564;28;45280;-82
2023/07/04 08:49:34;;;;;;;;;8.00;8.00;;;;;;;;5047502;28;47940;-81
2023/07/04 08:52:06;;;;;;;;;7.33;7.33;;;;;;;;5065356;28;45419;-82
2023/07/04 08:54:32;;;;;;;;;9.00;7.33;;;;;;;;5064842;28;45291;-81
2023/07/04 08:56:59;;;;;;;;;7.00;7.00;;;;;;;;5067029;28;46080;-78
2023/07/04 08:59:37;;;;;;;;;8.67;8.67;;;;;;;;5072698;28;46558;-79
2023/07/04 09:02:11;;;;;;;;;8.00;8.00;;;;;;;;5068250;28;45223;-80
2023/07/04 09:04:48;;;;;;;;;9.67;9.00;;;;;;;;5073835;28;45527;-81
2023/07/04 09:07:19;;;;;;;;;8.00;7.33;;;;;;;;5067585;28;45244;-80
2023/07/04 09:09:59;;;;;;;;;9.00;8.00;;;;;;;;5080159;28;45323;-78
2023/07/04 09:12:24;;;;;;;;;7.00;7.00;;;;;;;;5069088;28;45621;-77
2023/07/04 09:14:58;;;;;;;;;7.33;7.33;;;;;;;;5087052;28;45215;-78
2023/07/04 09:17:31;;;;;;;;;9.33;8.67;;;;;;;;5090101;28;45483;-78
2023/07/04 09:19:57;;;;;;;;;10.00;8.67;;;;;;;;5088222;28;45472;-80
2023/07/04 09:22:23;;;;;;;;;7.67;7.67;;;;;;;;5068135;28;45669;-78
2023/07/04 09:24:48;;;;;;;;;8.33;8.33;;;;;;;;5088045;28;45303;-78
2023/07/04 09:27:14;;;;;;;;;9.33;8.33;;;;;;;;5086832;28;45228;-79
2023/07/04 09:29:39;;;;;;;;;9.33;8.67;;;;;;;;5100862;27;45468;-78
2023/07/04 09:32:05;;;;;;;;;8.33;8.33;;;;;;;;5107319;27;45270;-77
2023/07/04 09:34:36;;;;;;;;;10.33;10.33;;;;;;;;5089681;27;45249;-78
2023/07/04 09:37:08;;;;;;;;;11.33;10.33;;;;;;;;5104703;27;45585;-78
2023/07/04 09:39:44;;;;;;;;;8.67;7.33;;;;;;;;5103481;27;45372;-78
2023/07/04 09:42:09;;;;;;;;;10.00;9.67;;;;;;;;5104049;27;45271;-78
2023/07/04 09:44:36;;;;;;;;;9.00;9.00;;;;;;;;5103877;27;45402;-81
2023/07/04 09:47:02;;;;;;;;;14.33;10.67;;;;;;;;5083539;27;46102;-82
2023/07/04 09:49:29;;;;;;;;;11.00;10.67;;;;;;;;5103141;27;45420;-80
2023/07/04 09:52:01;;;;;;;;;8.33;7.00;;;;;;;;5090060;27;45307;-81
2023/07/04 09:54:26;;;;;;;;;11.00;9.00;;;;;;;;5069728;28;45339;-83
2023/07/04 09:56:52;;;;;;;;;10.00;9.00;;;;;;;;5052221;28;46064;-80
2023/07/04 09:59:18;;;;;;;;;9.33;9.33;;;;;;;;5071335;28;46135;-80
2023/07/04 10:01:45;;;;;;;;;11.00;11.00;;;;;;;;5074396;28;45270;-84
2023/07/04 10:04:11;;;;;;;;;7.00;7.00;;;;;;;;5053357;28;45422;-81
2023/07/04 10:06:38;;;;;;;;;10.00;9.33;;;;;;;;5071114;28;45696;-76
2023/07/04 10:09:14;;;;;;;;;10.33;10.00;;;;;;;;5068158;28;46123;-74
2023/07/04 10:11:39;;;;;;;;;8.33;8.33;;;;;;;;5040096;28;45573;-72
2023/07/04 10:14:09;;;;;;;;;9.33;9.00;;;;;;;;5058757;28;45306;-74
2023/07/04 10:16:35;;;;;;;;;10.67;10.67;;;;;;;;5059125;28;45287;-73
2023/07/04 10:19:11;;;;;;;;;13.00;12.00;;;;;;;;5040717;28;48093;-73
2023/07/04 10:21:40;;;;;;;;;15.33;12.67;;;;;;;;5040871;28;45689;-72
2023/07/04 10:24:07;;;;;;;;;11.00;11.00;;;;;;;;5059379;28;45388;-73
2023/07/04 10:26:32;;;;;;;;;12.00;10.67;;;;;;;;5079069;28;45513;-74
2023/07/04 10:28:58;;;;;;;;;10.00;8.67;;;;;;;;5084239;27;46294;-73
2023/07/04 10:31:23;;;;;;;;;9.00;8.00;;;;;;;;5098547;27;45252;-73
2023/07/04 10:33:51;;;;;;;;;8.33;8.33;;;;;;;;5099891;27;45487;-73
2023/07/04 10:36:21;;;;;;;;;9.00;8.33;;;;;;;;5081163;27;45998;-74
2023/07/04 10:38:48;;;;;;;;;8.33;8.00;;;;;;;;5099534;27;46127;-74
2023/07/04 10:41:20;;;;;;;;;7.00;7.00;;;;;;;;5072904;28;45225;-74
2023/07/04 10:43:49;;;;;;;;;10.00;10.00;;;;;;;;5075439;28;46574;-73
2023/07/04 10:46:19;;;;;;;;;10.00;9.33;;;;;;;;5058760;28;46489;-74
2023/07/04 10:48:46;;;;;;;;;7.00;6.00;;;;;;;;5078681;28;45357;-74
2023/07/04 10:51:24;;;;;;;;;9.33;9.33;;;;;;;;5078238;28;45310;-76
2023/07/04 10:53:50;;;;;;;;;7.33;7.33;;;;;;;;5064117;28;45688;-76
2023/07/04 10:56:24;;;;;;;;;7.00;7.00;;;;;;;;5080386;27;45410;-74
2023/07/04 10:58:53;;;;;;;;;8.67;8.00;;;;;;;;5063141;27;48300;-76
2023/07/04 11:01:28;;;;;;;;;6.33;6.33;;;;;;;;5077825;27;45404;-76
2023/07/04 11:03:57;;;;;;;;;9.33;9.33;;;;;;;;5071849;27;45742;-74
2023/07/04 11:06:30;;;;;;;;;12.00;9.67;;;;;;;;5060246;27;46031;-74
2023/07/04 11:08:55;;;;;;;;;9.67;8.00;;;;;;;;5054704;28;47271;-74
2023/07/04 11:11:28;;;;;;;;;9.33;9.33;;;;;;;;5078021;28;45357;-74
2023/07/04 11:13:56;;;;;;;;;8.00;8.00;;;;;;;;5075712;28;45382;-75
2023/07/04 11:16:27;;;;;;;;;9.75;7.75;;;;;;;;5059849;28;46439;-75
2023/07/04 11:19:06;;;;;;;;;9.00;8.00;;;;;;;;5075055;28;46005;-74
2023/07/04 11:21:32;;;;;;;;;12.33;10.33;;;;;;;;5077789;28;45383;-75
2023/07/04 11:24:13;;;;;;;;;9.00;8.33;;;;;;;;5062774;28;45432;-74
2023/07/04 11:26:58;;;;;;;;;10.25;8.00;;;;;;;;5061386;28;46063;-74
2023/07/04 11:29:24;;;;;;;;;8.33;8.33;;;;;;;;5062729;28;46808;-75
2023/07/04 11:32:05;;;;;;;;;8.67;7.67;;;;;;;;5081275;28;45390;-75
2023/07/04 11:34:49;;;;;;;;;8.33;7.67;;;;;;;;5081370;28;45260;-75
2023/07/04 11:37:16;;;;;;;;;8.67;8.00;;;;;;;;5078264;28;45604;-75
2023/07/04 11:39:42;;;;;;;;;9.75;9.00;;;;;;;;5075470;28;45908;-76
2023/07/04 11:42:18;;;;;;;;;9.67;8.33;;;;;;;;5073487;28;45154;-77
2023/07/04 11:44:57;;;;;;;;;9.67;9.67;;;;;;;;5081543;28;45452;-77
2023/07/04 11:47:42;;;;;;;;;9.33;9.33;;;;;;;;5065006;28;47527;-75
2023/07/04 11:50:19;;;;;;;;;11.00;10.67;;;;;;;;5043381;28;47303;-76
2023/07/04 11:52:49;;;;;;;;;10.67;8.67;;;;;;;;5060810;28;45317;-76
2023/07/04 11:55:16;;;;;;;;;7.67;7.67;;;;;;;;5081264;28;45376;-74
2023/07/04 11:57:59;;;;;;;;;8.67;7.00;;;;;;;;5072937;28;45468;-76
2023/07/04 12:00:44;;;;;;;;;8.67;8.67;;;;;;;;5067844;28;46659;-76
2023/07/04 12:03:21;;;;;;;;;8.00;8.00;;;;;;;;5064699;28;45473;-76
2023/07/04 12:05:53;;;;;;;;;11.67;11.67;;;;;;;;5080543;28;45458;-76
2023/07/04 12:08:31;;;;;;;;;9.00;8.67;;;;;;;;5045792;28;47144;-76
2023/07/04 12:11:00;;;;;;;;;8.00;8.00;;;;;;;;5062567;28;47386;-77
2023/07/04 12:13:29;;;;;;;;;9.67;8.00;;;;;;;;5053752;28;45457;-76
2023/07/04 12:15:56;;;;;;;;;7.00;7.00;;;;;;;;5069413;28;45359;-76
2023/07/04 12:18:26;;;;;;;;;7.33;7.33;;;;;;;;5058248;28;46525;-78
2023/07/04 12:20:52;;;;;;;;;8.67;8.67;;;;;;;;5061996;27;45474;-75
2023/07/04 12:23:17;;;;;;;;;8.67;8.33;;;;;;;;5066555;28;45476;-76
2023/07/04 12:25:44;;;;;;;;;8.00;7.00;;;;;;;;5079710;28;45553;-76
2023/07/04 12:28:11;;;;;;;;;7.67;6.67;;;;;;;;5056608;28;46198;-76
2023/07/04 12:30:40;;;;;;;;;6.00;6.00;;;;;;;;5058847;28;47578;-74
2023/07/04 12:33:06;;;;;;;;;8.67;8.00;;;;;;;;5044813;28;45290;-75
2023/07/04 12:35:35;;;;;;;;;10.00;8.33;;;;;;;;5058669;28;45390;-75
2023/07/04 12:38:01;;;;;;;;;8.67;8.00;;;;;;;;5045083;28;46797;-74
2023/07/04 12:40:28;;;;;;;;;7.00;7.00;;;;;;;;5037910;28;45452;-75
2023/07/04 12:42:54;;;;;;;;;8.33;8.00;;;;;;;;5068532;27;45489;-74
2023/07/04 12:45:24;;;;;;;;;11.00;10.67;;;;;;;;5062748;28;45447;-75
2023/07/04 12:47:50;;;;;;;;;10.67;10.00;;;;;;;;5059785;27;46257;-73
2023/07/04 12:50:16;;;;;;;;;10.67;9.33;;;;;;;;5058492;28;47292;-75
2023/07/04 12:52:43;;;;;;;;;8.00;8.00;;;;;;;;5079046;28;45359;-74
2023/07/04 12:55:14;;;;;;;;;10.67;10.00;;;;;;;;5060494;28;45391;-74
2023/07/04 12:57:40;;;;;;;;;10.33;10.33;;;;;;;;5060952;28;46546;-74
2023/07/04 13:00:13;;;;;;;;;11.33;11.33;;;;;;;;5061113;28;46267;-76
2023/07/04 13:02:38;;;;;;;;;12.00;11.00;;;;;;;;5079727;28;45539;-76
2023/07/04 13:05:04;;;;;;;;;9.67;9.00;;;;;;;;5061298;28;45395;-74
2023/07/04 13:07:30;;;;;;;;;7.00;7.00;;;;;;;;5079288;28;45401;-77
2023/07/04 13:09:56;;;;;;;;;8.67;8.00;;;;;;;;5057570;28;47292;-74
2023/07/04 13:12:27;;;;;;;;;9.33;7.33;;;;;;;;5079468;28;45403;-74
2023/07/04 13:15:03;;;;;;;;;9.33;9.00;;;;;;;;5080341;28;45296;-74
2023/07/04 13:17:28;;;;;;;;;9.00;9.00;;;;;;;;5078061;27;45263;-76
2023/07/04 13:19:53;;;;;;;;;9.33;9.00;;;;;;;;5079981;28;45792;-75
2023/07/04 13:22:19;;;;;;;;;8.67;8.33;;;;;;;;5091040;27;45365;-74
2023/07/04 13:24:44;;;;;;;;;8.67;7.67;;;;;;;;5089795;27;45368;-75
2023/07/04 13:27:18;;;;;;;;;6.00;6.00;;;;;;;;5063221;27;45444;-75
2023/07/04 13:30:02;;;;;;;;;8.00;8.00;;;;;;;;5059802;27;47117;-75
2023/07/04 13:32:33;;;;;;;;;8.33;6.67;;;;;;;;5069057;27;45539;-74
2023/07/04 13:35:18;;;;;;;;;4.67;4.67;;;;;;;;5041333;28;45328;-74
2023/07/04 13:37:43;;;;;;;;;3.33;3.33;;;;;;;;5076593;27;45691;-73
2023/07/04 13:40:09;;;;;;;;;5.00;5.00;;;;;;;;5078242;28;45362;-74
2023/07/04 13:42:34;;;;;;;;;2.00;2.00;;;;;;;;5078293;27;45390;-73
2023/07/04 13:44:59;;;;;;;;;3.67;3.67;;;;;;;;5079226;28;45645;-73
2023/07/04 13:47:24;;;;;;;;;4.00;2.00;;;;;;;;5077166;28;45273;-74
2023/07/04 13:49:50;;;;;;;;;3.67;3.00;;;;;;;;5061141;28;47079;-74
2023/07/04 13:52:15;;;;;;;;;4.67;4.67;;;;;;;;5079519;28;45333;-73
2023/07/04 13:54:40;;;;;;;;;5.00;5.00;;;;;;;;5070558;28;45618;-74
2023/07/04 13:57:06;;;;;;;;;4.00;4.00;;;;;;;;5078602;28;45208;-73
2023/07/04 13:59:31;;;;;;;;;5.00;5.00;;;;;;;;5055023;27;47231;-74
2023/07/04 14:01:56;;;;;;;;;5.33;5.33;;;;;;;;5054216;28;45318;-74
2023/07/04 14:04:21;;;;;;;;;6.00;6.00;;;;;;;;5052100;27;45444;-74
2023/07/04 14:06:51;;;;;;;;;6.33;6.00;;;;;;;;5060402;28;46151;-74
2023/07/04 14:09:16;;;;;;;;;5.67;5.67;;;;;;;;5060087;28;46378;-75
2023/07/04 14:11:41;;;;;;;;;5.00;5.00;;;;;;;;5079800;27;45679;-74
2023/07/04 14:14:07;;;;;;;;;6.00;6.00;;;;;;;;5099690;27;45450;-75
2023/07/04 14:16:32;;;;;;;;;6.67;6.00;;;;;;;;5074926;27;45438;-76
2023/07/04 14:18:57;;;;;;;;;7.00;7.00;;;;;;;;5069913;28;46274;-75
2023/07/04 14:21:23;;;;;;;;;5.00;5.00;;;;;;;;5069160;27;45654;-76
2023/07/04 14:23:49;;;;;;;;;6.00;6.00;;;;;;;;5056489;28;45435;-75
2023/07/04 14:26:15;;;;;;;;;7.00;7.00;;;;;;;;5071871;28;45592;-75
2023/07/04 14:28:41;;;;;;;;;7.00;6.00;;;;;;;;5081361;27;45441;-76
2023/07/04 14:31:06;;;;;;;;;7.67;7.00;;;;;;;;5090588;27;46038;-76
2023/07/04 14:33:32;;;;;;;;;5.00;5.00;;;;;;;;5057194;28;45521;-75
2023/07/04 14:35:57;;;;;;;;;8.00;7.00;;;;;;;;5053103;27;46609;-76
2023/07/04 14:38:22;;;;;;;;;5.33;5.00;;;;;;;;5071116;28;45460;-74